Badger Spring Valley, Nevada Weather observations

Data are for 10 minute period ending at time listed.
 Day   Time   Solar   Ave.   Ave.  Ave.  Vector  Max.   Baro.   Total    
  of    of     Rad.   Air    Rel.  Wind   Wind   Wind  Press.  Precip.   
Year   Day            Temp.  Hum.  Speed  Dir.   Gust                    
2016   (PST)  Kw/m2    F      %     mph   deg.    mph    mb.     in.     
-------------------------------------------------------------------------
 211   13:20   0.35   95.8    13    4.7   277    14.2   831.5    0.00 
 211   13:30   0.18   93.4    14   14.9   331    23.8   831.4    0.00 
 211   13:40   0.11   90.6    16   15.9   327    29.6   831.4    0.00 
 211   13:50   0.07   88.8    18   20.9   309    32.2   831.6    0.00 
 211   14:00   0.05   80.6    42   19.1   267    33.6   832.2    0.04 
 211   14:10   0.05   74.4    49    4.5   186    12.3   832.6    0.03 
 211   14:20   0.06   76.9    47    5.2    24    11.7   832.1    0.00 
 211   14:30   0.07   76.8    50    4.4   346     8.3   831.8    0.00 
 211   14:40   0.11   76.7    58    7.7   307    10.4   831.7    0.00 
 211   14:50   0.20   77.9    51    8.9   296    12.5   831.5    0.00 
 211   15:00   0.26   80.7    46    6.5   294     8.6   831.5    0.00 
 211   15:10   0.22   82.6    40    7.1   308    10.0   831.5    0.00 
 211   15:20   0.21   85.2    26   11.8   306    23.7   831.5    0.00 
 211   15:30   0.20   85.9    21   16.6   292    25.5   831.4    0.00 
 211   15:40   0.17   86.2    19   12.6   284    20.1   831.4    0.00 
 211   15:50   0.12   86.6    19   11.9   275    21.6   831.3    0.00 
 211   16:00   0.11   86.9    18   12.3   275    18.0   831.2    0.00 
 211   16:10   0.11   87.5    16   11.1   265    18.6   831.2    0.00 
 211   16:20   100.00  99999.0   99999  99999.0   99999   99999.0   99999.0   99999.00 
 211   16:30   100.00  99999.0   99999  99999.0   99999   99999.0   99999.0   99999.00 
 211   16:40   100.00  99999.0   99999  99999.0   99999   99999.0   99999.0   99999.00 
 211   16:50   100.00  99999.0   99999  99999.0   99999   99999.0   99999.0   99999.00 
 211   17:00   100.00  99999.0   99999  99999.0   99999   99999.0   99999.0   99999.00 
 211   17:10   100.00  99999.0   99999  99999.0   99999   99999.0   99999.0   99999.00 
 211   17:20   0.04   86.4    18   14.1   306    20.8   831.1    0.00 
 211   17:30   0.04   87.5    16   12.3   321    16.8   831.2    0.00 
 211   17:40   0.04   86.9    17   14.1   314    21.1   831.4    0.00 
 211   17:50   0.04   86.8    16   14.3   322    20.5   831.5    0.00 
 211   18:00   0.03   87.3    15   19.2   321    26.2   831.5    0.00 
 211   18:10   0.02   87.3    15   18.0   347    28.4   831.2    0.00 
 211   18:20   0.01   85.5    20   17.7   358    46.9   831.4    0.00 
 211   18:30   0.01   82.3    26   14.3    12    33.0   831.5    0.00 
 211   18:40   0.01   81.7    26   19.5   355    31.6   831.8    0.00 
 211   18:50   0.00   81.0    28   13.8   356    25.2   831.9    0.00 
 211   19:00   0.00   80.7    28   12.7   354    24.0   831.8    0.00 
 211   19:10   0.00   80.1    29   14.1   353    21.3   831.9    0.00 
 211   19:20   0.00   79.9    29   17.5   346    25.8   831.9    0.00 
 211   19:30   0.00   79.9    29   15.2   348    22.1   832.0    0.00 
 211   19:40   0.00   80.0    28   12.9   342    20.8   832.1    0.00 
 211   19:50   0.00   80.1    28   11.0   340    17.7   832.3    0.00 
 211   20:00   0.00   80.4    28   11.2   333    16.0   832.5    0.00 
 211   20:10   0.00   80.8    26    9.7   301    15.4   832.7    0.00 
 211   20:20   0.00   80.4    26    6.3   317    10.2   832.6    0.00 
 211   20:30   0.00   80.7    25    8.9   312    12.2   832.4    0.00 
 211   20:40   0.00   81.6    23    9.3   296    12.9   832.4    0.00 
 211   20:50   0.00   81.1    24    8.8   288    10.8   832.4    0.00 
 211   21:00   0.00   79.8    26    7.9   277    11.8   832.4    0.00 
 211   21:10   0.00   79.4    26    9.7   274    14.2   832.3    0.00 
 211   21:20   0.00   81.2    24   10.4   273    16.4   832.3    0.00 
 211   21:30   0.00   81.5    24   11.8   272    17.9   832.2    0.00 
 211   21:40   0.00   81.1    24   11.4   278    15.6   832.2    0.00 
 211   21:50   0.00   80.9    24   10.5   297    15.3   832.1    0.00 
 211   22:00   0.00   81.2    24   11.1   307    15.9   832.0    0.00 
 211   22:10   0.00   81.0    24    7.7   299    12.1   831.8    0.00 
 211   22:20   0.00   80.3    24    6.9   292    10.8   831.7    0.00 
 211   22:30   0.00   80.7    24    6.1   302    10.1   831.5    0.00 
 211   22:40   0.00   79.9    25    3.7   210     6.3   831.6    0.00 
 211   22:50   0.00   78.1    28    2.5   212     5.1   831.6    0.00 
 211   23:00   0.00   77.3    29    3.4   331     5.3   831.5    0.00 
 211   23:10   0.00   76.7    29    4.0   327     5.0   831.3    0.00 
 211   23:20   0.00   77.3    29    5.4   308     7.4   831.1    0.00 
 211   23:30   0.00   77.4    28    6.7   302     7.8   831.1    0.00 
 211   23:40   0.00   77.9    27    5.7   302     8.2   831.1    0.00 
 211   23:50   0.00   77.1    28    1.8   336     4.1   830.9    0.00 
 212    0:00   0.00   76.4    29    3.7   240     5.8   830.8    0.00 
 212    0:10   0.00   77.3    28    4.2   177     8.5   831.0    0.00 
 212    0:20   0.00   78.5    26    5.0   256     8.5   830.9    0.00 
 212    0:30   0.00   77.7    27    5.9   252     6.9   830.9    0.00 
 212    0:40   0.00   77.6    27    5.8   260     6.9   830.9    0.00 
 212    0:50   0.00   76.2    29    6.0   281     7.4   830.8    0.00 
 212    1:00   0.00   75.3    30    2.5   289     6.2   830.8    0.00 
 212    1:10   0.00   74.5    30    0.2   323     1.6   830.8    0.00 
 212    1:20   0.00   75.2    30    2.2    31     4.2   830.8    0.00 
 212    1:30   0.00   74.5    30    5.6   331     7.2   830.9    0.00 
 212    1:40   0.00   75.1    30    6.4     4     8.6   831.0    0.00 
 212    1:50   0.00   76.1    28    5.6     3     7.0   830.9    0.00 
 212    2:00   0.00   75.3    29    4.6   326     6.2   831.0    0.00 
 212    2:10   0.00   74.8    30    3.9   325     6.4   831.1    0.00 
 212    2:20   0.00   74.9    30    2.3   346     4.6   831.0    0.00 
 212    2:30   0.00   75.0    31    1.5   285     2.5   831.0    0.00 
 212    2:40   0.00   74.0    31    7.0   296     9.3   831.1    0.00 
 212    2:50   0.00   74.7    30    4.5   314     6.4   831.1    0.00 
 212    3:00   0.00   74.2    30    4.3   300     5.7   831.1    0.00 
 212    3:10   0.00   74.2    31    4.3   302     4.9   831.1    0.00 
 212    3:20   0.00   74.6    30    5.3   290     7.0   831.1    0.00 
 212    3:30   0.00   74.7    30    4.6   282     7.0   831.2    0.00 
 212    3:40   0.00   75.5    30    3.5   262     5.3   831.3    0.00 
 212    3:50   0.00   75.2    30    3.2   255     4.5   831.3    0.00 
 212    4:00   0.00   74.6    31    2.6   249     3.9   831.3    0.00 
 212    4:10   0.00   75.1    31    4.0   178    12.3   831.5    0.00 
 212    4:20   0.00   76.0    32    8.4   148    13.2   831.6    0.00 
 212    4:30   0.00   75.3    33    3.4   190     5.4   831.7    0.00 
 212    4:40   0.00   74.5    34    2.7   207     4.1   831.6    0.00 
 212    4:50   0.00   73.9    35    3.3   235     5.2   831.6    0.00 
 212    5:00   0.01   73.8    35    4.6   254     5.9   831.6    0.00 
 212    5:10   0.04   74.3    34    5.1   274     8.0   831.7    0.00 
 212    5:20   0.07   75.2    33    5.8   280     9.9   831.7    0.00 
 212    5:30   0.07   76.3    32    4.1   250     6.0   831.9    0.00 
 212    5:40   0.05   75.5    33    3.9   214     6.9   832.0    0.00 
 212    5:50   0.06   74.9    35    3.7   204     5.4   832.0    0.00 
 212    6:00   0.06   74.5    36    4.1   219     5.6   832.2    0.00 
 212    6:10   0.06   74.2    37    4.1   213     5.3   832.2    0.00 
 212    6:20   0.08   74.2    40    3.8   207     5.1   832.3    0.00 
 212    6:30   0.11   73.9    47    4.6   217     6.9   832.3    0.00 
 212    6:40   0.14   73.9    50    4.4   208     6.3   832.4    0.00 
 212    6:50   0.17   74.0    50    6.1   194     8.9   832.5    0.00 
 212    7:00   0.20   74.3    51    5.0   198     7.1   832.6    0.00 
 212    7:10   0.22   74.7    50    3.7   208     8.3   832.7    0.00 
 212    7:20   0.21   75.0    50    3.1   182     6.1   832.9    0.00 
 212    7:30   0.40   75.9    49    2.8   185     5.2   833.0    0.00 
 212    7:40   0.46   76.9    46    3.1   159     6.4   832.9    0.00 
 212    7:50   0.46   77.5    46    4.0   166     6.5   832.9    0.00 
 212    8:00   0.47   78.1    44    4.0   137     6.4   832.9    0.00 
 212    8:10   0.66   79.4    43    5.7   149     9.1   832.9    0.00 
 212    8:20   0.66   80.4    40    4.5   170     9.1   832.8    0.00 
 212    8:30   0.69   81.1    40    6.2   152    10.6   832.6    0.00 
 212    8:40   0.72   81.7    37    6.3   147    10.4   832.5    0.00 
 212    8:50   0.75   83.3    34    8.3   156    13.5   832.5    0.00 
 212    9:00   0.77   84.8    31    7.9   169    15.3   832.5    0.00 
 212    9:10   0.79   85.3    28    6.7   220    11.5   832.5    0.00 
 212    9:20   0.81   85.2    28    7.2   226    12.1   832.6    0.00 
 212    9:30   0.85   86.3    27    8.2   212    14.1   832.6    0.00 
 212    9:40   0.90   86.5    27    8.6   200    15.6   832.6    0.00 
 212    9:50   0.89   86.9    26    8.3   222    13.5   832.7    0.00 
 212   10:00   0.71   86.9    26    8.4   193    15.1   832.6    0.00 
 212   10:10   0.36   85.5    28    9.5   179    13.7   832.6    0.00 
 212   10:20   0.40   84.1    32    8.5   163    12.2   832.6    0.00 
 212   10:30   0.99   86.5    29    7.3   180    13.7   832.6    0.00 
 212   10:40   1.06   87.9    25    9.6   208    14.6   832.5    0.00 
 212   10:50   1.01   88.4    24    7.8   216    15.5   832.4    0.00 
 212   11:00   1.00   88.6    24    9.2   209    14.7   832.2    0.00 
 212   11:10   0.95   89.3    24   10.5   194    19.5   832.1    0.00 
 212   11:20   1.03   89.7    23    9.9   218    15.8   832.0    0.00 
 212   11:30   1.02   89.8    23    8.7   250    15.4   831.9    0.00 
 212   11:40   0.86   90.2    23    9.8   210    16.2   831.8    0.00 
 212   11:50   0.53   89.5    24    6.8   211    16.3   831.7    0.00 
 212   12:00   0.78   89.3    24    9.5   218    14.2   831.7    0.00 
 212   12:10   1.03   91.6    22   10.2   206    18.6   831.6    0.00 
 212   12:20   1.01   92.4    21   10.8   189    18.4   831.3    0.00 
 212   12:30   0.97   92.5    21    9.6   205    15.9   831.1    0.00 
 212   12:40   1.02   92.3    20   11.1   243    18.2   831.0    0.00 
 212   12:50   0.94   91.7    21    8.4   249    14.5   830.9    0.00 
 212   13:00   0.96   92.7    20   10.4   250    17.8   830.8    0.00 
 212   13:10   1.00   92.6    20    7.7   235    15.4   830.6    0.00 

Return to Badger Spring Valley graphs page.


Western Regional Climate Center,wrcc@dri.edu